Flight Track Log - Related Links

Times and Time Zones

All times are in EDT time to prevent confusion due to time zone crossing. See the CTL13 flight status page for this flight to view local times or setup timezone preferences in your user account.


Time Position Orientation Groundspeed Altitude Reporting Facility
EDT Latitude Longitude Course Direction KTS MPH feet Rate Location/Type
Thu 08:31:52 PM 39.8667 -86.2833 323° Northwest 122 140 1,600  Level Indianapolis TRACON
Thu 08:32:28 PM 39.8833 -86.3000 323° Northwest 122 140 2,200 1,000 Climbing Indianapolis TRACON
Thu 08:33:28 PM 39.9000 -86.3333 303° West 123 142 3,200 850 Climbing Indianapolis TRACON
Thu 08:34:28 PM 39.9333 -86.3500 339° North 135 155 3,900 700 Climbing Indianapolis TRACON
Thu 08:35:28 PM 39.9667 -86.3833 323° Northwest 152 175 4,600 269 Climbing Indianapolis TRACON
Thu 08:37:00 PM 40.0210 -86.4542 315° West  Level FlightAware Approximate
Thu 08:41:54 PM 40.2011 -86.6464 320° Northwest 229 264 5,900  Level Chicago Center
Thu 08:42:22 PM 40.2250 -86.6622 333° Northwest 195 224 5,800  Descending Chicago Center
Thu 08:42:56 PM 40.2511 -86.6747 340° North 193 222 5,900 98 Climbing Chicago Center
Thu 08:43:23 PM 40.2694 -86.7033 310° West 190 219 5,900 -97 Level Chicago Center
Thu 08:43:58 PM 40.2897 -86.7206 327° Northwest 190 219 5,800 100 Descending Chicago Center
Thu 08:44:00 PM 40.2790 -86.7705 320° Northwest  Level FlightAware Approximate
Thu 08:44:23 PM 40.3053 -86.7464 308° West 187 215 6,000  Level Chicago Center
Thu 08:45:00 PM 40.3176 -86.8124 320° Northwest  Level FlightAware Approximate
Thu 08:45:00 PM 40.3269 -86.7686 322° Northwest 189 217 6,000  Level Chicago Center
Thu 08:45:24 PM 40.3431 -86.7953 308° West 184 212 6,000 -95 Level Chicago Center
Thu 08:46:00 PM 40.3561 -86.8544 320° Northwest  Level FlightAware Approximate
Thu 08:46:03 PM 40.3619 -86.8150 321° Northwest 185 213 5,900  Level Chicago Center
Thu 08:46:25 PM 40.3789 -86.8411 310° West 186 214 6,000 97 Climbing Chicago Center
Thu 08:47:00 PM 40.3946 -86.8964 320° Northwest  Level FlightAware Approximate
Thu 08:47:05 PM 40.4061 -86.8733 318° Northwest 186 214 6,000  Level Chicago Center
Thu 08:47:25 PM 40.4189 -86.8903 315° West 186 214 6,000  Level Chicago Center
Thu 08:48:07 PM 40.4447 -86.9181 321° Northwest 187 215 6,000  Level Chicago Center
Thu 08:48:26 PM 40.4547 -86.9364 306° West 185 213 6,000  Level Chicago Center
Thu 08:49:09 PM 40.4786 -86.9647 318° Northwest 182 209 6,000  Level Chicago Center
Thu 08:49:26 PM 40.4903 -86.9878 304° West 182 209 6,000  Level Chicago Center
Thu 08:50:11 PM 40.5136 -87.0117 322° Northwest 181 208 6,000  Level Chicago Center
Thu 08:51:13 PM 40.5503 -87.0564 317° Northwest 181 208 6,000 -48 Level Chicago Center
Thu 08:52:15 PM 40.6000 -87.1033 324° Northwest 182 209 5,900 -48 Descending Chicago Center
Thu 08:53:17 PM 40.6517 -87.1278 340° North 187 215 5,900  Level Chicago Center
Thu 08:54:19 PM 40.7042 -87.1500 342° North 193 222 5,900  Level Chicago Center
Thu 08:55:21 PM 40.7533 -87.1778 337° Northwest 194 223 5,900 -48 Level Chicago Center
Thu 08:56:24 PM 40.8081 -87.1811 357° North 198 228 5,800 -144 Descending Chicago Center
Thu 08:57:26 PM 40.8647 -87.1242 37° Northeast 211 243 5,600 -242 Descending Chicago Center
Thu 08:58:28 PM 40.9144 -87.0739 37° Northeast 218 251 5,300 -290 Descending Chicago Center
Thu 08:59:30 PM 40.9642 -87.0267 36° Northeast 222 255 5,000 -145 Descending Chicago Center
Thu 09:00:32 PM 41.0169 -87.0036 18° North 217 250 5,000  Level Chicago Center
Thu 09:01:34 PM 41.0728 -86.9950 North 204 235 5,000 -48 Level Chicago Center
Thu 09:02:36 PM 41.1383 -87.0022 355° North 200 230 4,900 -48 Descending Chicago Center
Thu 09:03:38 PM 41.1911 -87.0153 349° North 196 226 4,900  Level Chicago Center
Thu 09:04:40 PM 41.2394 -87.0392 340° North 190 219 4,900  Level Chicago Center
Thu 09:05:42 PM 41.2883 -87.0619 341° North 187 215 4,900  Level Chicago Center
Thu 09:06:44 PM 41.3383 -87.0831 342° North 188 216 4,900  Level Chicago Center
Thu 09:07:46 PM 41.3900 -87.1036 343° North 192 221 4,900  Level Chicago Center
Thu 09:08:39 PM 41.4333 -87.1333 333° Northwest 187 215 4,900  Level Chicago TRACON
Thu 09:09:39 PM 41.4833 -87.1500 346° North 186 214 4,900  Level Chicago TRACON
Thu 09:10:39 PM 41.5333 -87.1833 333° Northwest 179 206 4,900  Level Chicago TRACON
Thu 09:11:39 PM 41.5333 -87.2500 270° West 163 188 4,900  Level Chicago TRACON
Thu 09:12:40 PM 41.5333 -87.3000 270° West 156 180 4,900  Level Chicago TRACON
Thu 09:13:40 PM 41.5333 -87.3667 270° West 156 180 4,900 50 Level Chicago TRACON
Thu 09:14:40 PM 41.5500 -87.4167 294° West 166 191 5,000 76 Climbing Chicago TRACON
Thu 09:14:59 PM 41.5544 -87.4281 298° West 165 190 5,000 -74 Level Chicago Center
Thu 09:16:01 PM 41.5864 -87.4744 313° West 171 197 4,900 -48 Descending Chicago Center
Thu 09:17:03 PM 41.6189 -87.5197 314° West 171 197 4,900 -290 Level Chicago Center
Thu 09:18:05 PM 41.6525 -87.5653 315° West 171 197 4,300 -823 Descending Chicago Center
Thu 09:19:07 PM 41.6933 -87.6219 314° West 175 201 3,200 -1,011 Descending Chicago Center
Thu 09:19:40 PM 41.7167 -87.6500 318° Northwest 174 200 2,700 -968 Descending Chicago TRACON
Thu 09:20:40 PM 41.7500 -87.7000 312° West 170 196 1,700 -887 Descending Chicago TRACON
Thu 09:21:35 PM 41.7667 -87.7333 304° West 138 159 1,000 -764 Descending Chicago TRACON

Login

Don't have an account? Register now (free) for customized features, flight alerts, and more!